Time;durP1;ratioP1;P1;durP2;ratioP2;P2;SDS_P1;SDS_P2;PMS_P1;PMS_P2;Temp;Humidity;BMP_temperature;BMP_pressure;BME280_temperature;BME280_humidity;BME280_pressure;Samples;Min_cycle;Max_cycle;Signal;HPM_P1;HPM_P2
2022/05/10 00:02:25;;;;;;;;;26.50;22.00;;;;;20.65;41.25;101431.50;5035023;28;45389;-52
2022/05/10 00:04:50;;;;;;;;;27.50;23.00;;;;;20.70;41.46;101442.72;5041404;28;46866;-52
2022/05/10 00:07:17;;;;;;;;;30.50;24.50;;;;;20.70;41.50;101445.38;5033773;28;47060;-51
2022/05/10 00:09:42;;;;;;;;;28.00;24.75;;;;;20.69;41.82;101437.50;5030178;28;45816;-51
2022/05/10 00:12:08;;;;;;;;;28.50;24.00;;;;;20.67;41.96;101437.59;5033495;28;59137;-52
2022/05/10 00:14:34;;;;;;;;;27.50;25.00;;;;;20.65;41.91;101437.66;5035691;28;45576;-52
2022/05/10 00:17:00;;;;;;;;;29.00;24.00;;;;;20.63;42.02;101436.91;5034840;28;46172;-51
2022/05/10 00:19:27;;;;;;;;;25.25;23.75;;;;;20.53;42.34;101411.75;5035694;28;67151;-52
2022/05/10 00:21:53;;;;;;;;;29.25;24.00;;;;;20.61;42.22;101429.91;5029788;28;45509;-49
2022/05/10 00:24:18;;;;;;;;;30.25;27.00;;;;;20.60;42.28;101420.25;5026591;28;45674;-51
2022/05/10 00:26:43;;;;;;;;;26.25;22.00;;;;;20.59;42.39;101423.84;5025304;28;68986;-51
2022/05/10 00:29:09;;;;;;;;;32.75;27.25;;;;;20.57;42.30;101429.22;5038112;28;45291;-50
2022/05/10 00:31:34;;;;;;;;;36.00;27.00;;;;;20.55;42.61;101424.97;5036283;28;60154;-52
2022/05/10 00:34:01;;;;;;;;;29.50;26.75;;;;;20.53;42.62;101425.03;5034306;28;66970;-51
2022/05/10 00:36:27;;;;;;;;;29.00;23.00;;;;;20.53;42.57;101426.84;5027616;28;45399;-52
2022/05/10 00:38:52;;;;;;;;;27.75;25.25;;;;;20.51;42.86;101420.78;5032851;28;45539;-49
2022/05/10 00:41:43;;;;;;;;;33.50;27.00;;;;;20.48;42.86;101414.66;5034374;28;61885;-51
2022/05/10 00:44:39;;;;;;;;;27.50;23.25;;;;;20.48;43.15;101413.81;5031445;28;45502;-49
2022/05/10 00:47:09;;;;;;;;;27.75;24.75;;;;;20.44;43.13;101413.13;5019979;28;46303;-49
2022/05/10 00:49:45;;;;;;;;;27.25;23.50;;;;;20.42;43.02;101406.22;5032778;28;45970;-51
2022/05/10 00:52:43;;;;;;;;;28.75;24.50;;;;;20.40;43.17;101402.78;5030070;28;45479;-52
2022/05/10 00:55:18;;;;;;;;;25.25;22.25;;;;;20.37;43.52;101395.84;5033284;28;45631;-49
2022/05/10 00:57:54;;;;;;;;;27.75;26.75;;;;;20.39;43.33;101398.41;5014671;28;45999;-48
2022/05/10 01:00:22;;;;;;;;;32.50;24.75;;;;;20.38;43.67;101394.91;5031833;28;45248;-51
2022/05/10 01:02:50;;;;;;;;;30.25;24.00;;;;;20.36;43.69;101396.78;5036251;28;45458;-50
2022/05/10 01:05:38;;;;;;;;;31.25;26.00;;;;;20.36;43.61;101394.13;5038890;28;45383;-54
2022/05/10 01:08:17;;;;;;;;;26.25;23.00;;;;;20.37;43.85;101387.00;5028749;28;46051;-52
2022/05/10 01:10:53;;;;;;;;;27.00;24.00;;;;;20.37;43.90;101394.97;5018620;28;46618;-50
2022/05/10 01:13:31;;;;;;;;;24.25;22.25;;;;;20.35;44.07;101395.06;5027348;28;45498;-51
2022/05/10 01:16:20;;;;;;;;;24.75;18.50;;;;;20.34;44.31;101395.16;5025702;28;45495;-51
2022/05/10 01:18:45;;;;;;;;;28.00;24.00;;;;;20.31;43.99;101393.53;5039123;28;46207;-52
2022/05/10 01:21:48;;;;;;;;;26.75;21.25;;;;;20.28;44.35;101381.25;5038025;28;51635;-53
2022/05/10 01:24:13;;;;;;;;;27.25;24.25;;;;;20.26;44.51;101377.00;5029579;28;45545;-52
2022/05/10 01:27:27;;;;;;;;;24.33;22.67;;;;;20.22;44.54;101372.78;5033216;28;45462;-50
2022/05/10 01:30:05;;;;;;;;;24.50;21.75;;;;;20.22;44.56;101378.09;4995838;28;46187;-50
2022/05/10 01:35:39;;;;;;;;;30.50;26.75;;;;;20.18;44.80;101379.22;5034545;28;45544;-50
2022/05/10 01:38:08;;;;;;;;;24.75;22.50;;;;;20.14;44.88;101373.22;5032347;28;45490;-50
2022/05/10 01:40:45;;;;;;;;;27.50;22.75;;;;;20.12;44.98;101375.13;5034922;28;48351;-51
2022/05/10 01:43:47;;;;;;;;;25.25;21.75;;;;;20.07;45.39;101367.41;5026271;28;46021;-50
2022/05/10 01:46:16;;;;;;;;;26.00;24.25;;;;;20.01;45.02;101359.78;4989161;28;45501;-50
2022/05/10 01:48:42;;;;;;;;;24.00;21.75;;;;;20.03;45.17;101368.53;5027031;28;45506;-52
2022/05/10 01:51:15;;;;;;;;;28.00;24.00;;;;;20.01;45.22;101356.25;5039774;28;45951;-53
2022/05/10 01:53:41;;;;;;;;;26.25;22.25;;;;;20.00;45.32;101365.19;5037347;28;46033;-53
2022/05/10 01:56:10;;;;;;;;;33.75;26.50;;;;;19.99;45.55;101359.03;5022220;28;45236;-51
2022/05/10 01:58:37;;;;;;;;;28.25;26.25;;;;;19.98;45.35;101357.31;5031423;28;45383;-51
2022/05/10 02:01:07;;;;;;;;;24.50;22.50;;;;;19.96;45.57;101356.53;5037008;28;46124;-53
2022/05/10 02:03:45;;;;;;;;;24.00;23.75;;;;;19.96;45.54;101351.22;5026954;28;45910;-53
2022/05/10 02:06:10;;;;;;;;;28.75;23.75;;;;;19.95;45.52;101353.97;5019240;28;45445;-53
2022/05/10 02:08:55;;;;;;;;;31.00;22.67;;;;;19.93;45.53;101354.06;5035073;28;45430;-50
2022/05/10 02:11:20;;;;;;;;;24.25;20.75;;;;;19.91;45.97;101354.13;5028017;28;47003;-52
2022/05/10 02:13:50;;;;;;;;;25.00;23.50;;;;;19.90;46.03;101354.22;5032151;28;63526;-53
2022/05/10 02:16:25;;;;;;;;;23.50;21.75;;;;;19.89;46.07;101349.84;5027929;28;45448;-51
2022/05/10 02:19:20;;;;;;;;;25.25;22.75;;;;;19.87;45.77;101343.78;5032718;28;45430;-52
2022/05/10 02:21:58;;;;;;;;;26.00;23.25;;;;;19.85;45.75;101341.22;5030586;28;45327;-51
2022/05/10 02:24:25;;;;;;;;;25.50;22.50;;;;;19.83;45.97;101343.09;5032838;28;46052;-50
2022/05/10 02:27:03;;;;;;;;;29.00;22.50;;;;;19.84;45.95;101351.91;5030740;28;45385;-53
2022/05/10 02:29:45;;;;;;;;;23.00;22.50;;;;;19.84;46.22;101341.28;5024212;28;45571;-50
2022/05/10 02:35:05;;;;;;;;;25.00;21.75;;;;;19.79;46.42;101343.34;5030218;28;45325;-51
2022/05/10 02:37:31;;;;;;;;;21.75;20.75;;;;;19.78;46.54;101339.84;5030224;28;45552;-51
2022/05/10 02:39:57;;;;;;;;;25.25;22.50;;;;;19.77;46.39;101335.47;5034619;28;45597;-53
2022/05/10 02:42:22;;;;;;;;;25.50;22.00;;;;;19.78;46.51;101338.97;5035068;28;46070;-51
2022/05/10 02:44:50;;;;;;;;;24.50;23.00;;;;;19.78;46.31;101336.31;5038085;28;46351;-51
2022/05/10 02:47:16;;;;;;;;;21.25;21.25;;;;;19.78;46.52;101336.31;5014671;28;45278;-52
2022/05/10 02:49:41;;;;;;;;;25.25;22.50;;;;;19.79;46.53;101330.06;5038464;28;46096;-53
2022/05/10 02:52:07;;;;;;;;;28.25;22.25;;;;;19.80;46.57;101331.78;5028678;28;47146;-53
2022/05/10 02:54:32;;;;;;;;;23.75;19.50;;;;;19.80;46.46;101334.44;5035051;28;69638;-51
2022/05/10 02:56:58;;;;;;;;;23.50;21.50;;;;;19.80;46.47;101331.78;5036602;28;47879;-53
2022/05/10 02:59:25;;;;;;;;;27.50;24.75;;;;;19.78;46.68;101323.91;5023183;28;45344;-53
2022/05/10 03:02:15;;;;;;;;;23.00;21.25;;;;;19.78;46.83;101325.69;5037693;28;46810;-52
2022/05/10 03:04:43;;;;;;;;;23.50;19.50;;;;;19.76;46.68;101320.50;5037196;28;45556;-51
2022/05/10 03:07:08;;;;;;;;;26.25;23.50;;;;;19.73;46.82;101324.16;5037166;28;45358;-53
2022/05/10 03:09:34;;;;;;;;;24.25;20.25;;;;;19.75;46.77;101318.75;5035624;28;45753;-53
2022/05/10 03:12:02;;;;;;;;;22.75;22.25;;;;;19.75;46.55;101326.72;5033564;28;47216;-52
2022/05/10 03:14:28;;;;;;;;;22.75;20.00;;;;;19.77;46.78;101316.03;5041049;28;45344;-51
2022/05/10 03:16:53;;;;;;;;;23.50;21.75;;;;;19.77;46.73;101322.19;5030417;28;63246;-53
2022/05/10 03:19:18;;;;;;;;;22.50;18.50;;;;;19.79;46.54;101322.09;5039021;28;68290;-51
2022/05/10 03:21:44;;;;;;;;;25.25;21.25;;;;;19.78;46.70;101313.28;5033773;28;69655;-51
2022/05/10 03:24:09;;;;;;;;;24.25;21.00;;;;;19.75;46.42;101310.78;5034423;28;66095;-52
2022/05/10 03:26:35;;;;;;;;;23.00;20.25;;;;;19.75;46.99;101302.81;5025436;28;45260;-52
2022/05/10 03:29:00;;;;;;;;;26.50;21.75;;;;;19.71;47.04;101302.13;5039649;28;45387;-53
2022/05/10 03:31:26;;;;;;;;;27.00;20.25;;;;;19.69;46.74;101292.53;5033811;28;47750;-53
2022/05/10 03:36:35;;;;;;;;;23.75;21.00;;;;;19.68;46.77;101299.63;5034329;28;45478;-53
2022/05/10 03:39:01;;;;;;;;;24.50;23.00;;;;;19.68;46.88;101301.44;5032731;28;47160;-53
2022/05/10 03:41:26;;;;;;;;;22.00;19.75;;;;;19.66;46.99;101296.19;5030994;28;68182;-53
2022/05/10 03:43:52;;;;;;;;;24.75;20.75;;;;;19.64;47.18;101294.59;5038917;28;45520;-52
2022/05/10 03:46:17;;;;;;;;;20.75;17.75;;;;;19.62;46.96;101293.78;5038113;28;62937;-51
2022/05/10 03:48:44;;;;;;;;;22.75;20.25;;;;;19.60;47.12;101293.91;5035494;28;59518;-51
2022/05/10 03:51:09;;;;;;;;;23.50;20.75;;;;;19.61;47.17;101292.09;5028055;28;46424;-52
2022/05/10 03:53:35;;;;;;;;;26.00;18.75;;;;;19.61;47.05;101292.09;5030883;28;45661;-52
2022/05/10 03:56:00;;;;;;;;;23.25;20.50;;;;;19.61;47.33;101287.63;5035268;28;61240;-52
2022/05/10 03:58:26;;;;;;;;;25.00;22.50;;;;;19.61;46.85;101284.97;5039249;28;45428;-53
2022/05/10 04:00:51;;;;;;;;;22.50;20.25;;;;;19.62;47.22;101280.50;5031957;28;47027;-53
2022/05/10 04:03:16;;;;;;;;;22.00;21.00;;;;;19.61;47.17;101292.09;5038633;28;46201;-52
2022/05/10 04:05:42;;;;;;;;;25.75;22.50;;;;;19.60;47.02;101288.59;5038967;28;57784;-53
2022/05/10 04:08:07;;;;;;;;;26.75;22.00;;;;;19.60;47.01;101285.94;5037570;28;67806;-53
2022/05/10 04:10:32;;;;;;;;;21.25;19.25;;;;;19.61;47.12;101286.78;5044038;28;53197;-53
2022/05/10 04:12:58;;;;;;;;;23.00;20.50;;;;;19.60;46.82;101285.94;5028867;28;68270;-53
2022/05/10 04:15:24;;;;;;;;;25.50;20.75;;;;;19.62;46.97;101288.47;5035415;28;58913;-53
2022/05/10 04:17:51;;;;;;;;;20.50;18.00;;;;;19.62;47.07;101281.41;5035583;28;45493;-52
2022/05/10 04:20:17;;;;;;;;;22.00;20.50;;;;;19.62;46.84;101292.00;5039620;28;46911;-53
2022/05/10 04:22:43;;;;;;;;;21.75;20.25;;;;;19.63;47.00;101284.91;5030992;28;45419;-53
2022/05/10 04:25:08;;;;;;;;;19.75;19.75;;;;;19.63;46.62;101287.56;5033940;28;45460;-50
2022/05/10 04:27:35;;;;;;;;;23.00;20.50;;;;;19.63;47.13;101282.25;5034235;28;45777;-52
2022/05/10 04:30:00;;;;;;;;;25.00;19.75;;;;;19.60;46.88;101275.31;5034979;28;46225;-50
2022/05/10 04:32:26;;;;;;;;;25.25;20.00;;;;;19.64;46.90;101283.97;5032305;28;65125;-51
2022/05/10 04:34:51;;;;;;;;;21.75;21.75;;;;;19.65;47.03;101275.03;5025198;28;56987;-52
2022/05/10 04:37:16;;;;;;;;;22.75;20.50;;;;;19.66;46.56;101280.28;5035787;28;45499;-52
2022/05/10 04:42:26;;;;;;;;;23.75;20.75;;;;;19.69;46.58;101281.91;5032628;28;45378;-52
2022/05/10 04:44:51;;;;;;;;;20.75;20.75;;;;;19.71;46.45;101282.69;5040312;28;63381;-53
2022/05/10 04:47:16;;;;;;;;;19.50;18.75;;;;;19.73;46.62;101280.78;5035000;28;66878;-52
2022/05/10 04:49:42;;;;;;;;;20.50;19.50;;;;;19.73;46.65;101280.78;5034827;28;46811;-53
2022/05/10 04:52:09;;;;;;;;;20.50;16.00;;;;;19.75;46.58;101284.22;5027980;28;67226;-52
2022/05/10 04:54:34;;;;;;;;;19.25;18.00;;;;;19.76;46.63;101277.13;5029960;28;45572;-52
2022/05/10 04:57:00;;;;;;;;;22.00;17.00;;;;;19.77;46.47;101284.16;5030531;28;65711;-52
2022/05/10 04:59:25;;;;;;;;;21.25;18.00;;;;;19.78;46.59;101281.41;5028539;28;46037;-49
2022/05/10 05:01:50;;;;;;;;;22.25;19.25;;;;;19.80;46.38;101292.81;5038158;28;65220;-52
2022/05/10 05:04:16;;;;;;;;;24.00;20.50;;;;;19.80;46.75;101292.81;5039234;28;60055;-52
2022/05/10 05:06:41;;;;;;;;;24.00;21.25;;;;;19.80;46.61;101290.16;5032662;28;63996;-51
2022/05/10 05:09:07;;;;;;;;;20.75;20.25;;;;;19.82;46.66;101292.72;5037884;28;68404;-51
2022/05/10 05:11:32;;;;;;;;;25.00;21.75;;;;;19.82;46.69;101296.22;5033667;28;65540;-52
2022/05/10 05:13:57;;;;;;;;;21.75;20.00;;;;;19.83;46.42;101289.97;5035428;28;62004;-52
2022/05/10 05:16:23;;;;;;;;;30.00;24.00;;;;;19.83;46.27;101284.66;5038595;28;45531;-53
2022/05/10 05:18:48;;;;;;;;;22.50;19.50;;;;;19.83;46.48;101289.09;5035812;28;45490;-50
2022/05/10 05:21:14;;;;;;;;;25.00;20.50;;;;;19.82;46.54;101295.38;5030619;28;66511;-51
2022/05/10 05:23:39;;;;;;;;;23.25;19.75;;;;;19.83;46.38;101297.06;5030787;28;47425;-51
2022/05/10 05:26:05;;;;;;;;;22.75;20.50;;;;;19.82;46.21;101296.22;5037985;28;64391;-48
2022/05/10 05:28:31;;;;;;;;;27.00;21.25;;;;;19.82;46.53;101300.69;5035210;28;47119;-51
2022/05/10 05:30:56;;;;;;;;;26.50;20.75;;;;;19.83;46.34;101299.72;5028504;28;45343;-52
2022/05/10 05:33:21;;;;;;;;;21.50;21.50;;;;;19.85;46.41;101293.41;5035831;28;45483;-51
2022/05/10 05:35:47;;;;;;;;;23.00;21.00;;;;;19.84;46.35;101294.34;5035078;28;67582;-52
2022/05/10 05:38:12;;;;;;;;;23.25;21.50;;;;;19.86;46.64;101304.88;5032527;28;54229;-53
2022/05/10 05:40:38;;;;;;;;;27.25;22.75;;;;;19.87;46.38;101302.13;5029715;28;52174;-51
2022/05/10 05:43:03;;;;;;;;;26.50;22.75;;;;;19.89;46.28;101302.03;5031079;28;47472;-52
2022/05/10 05:45:29;;;;;;;;;26.50;23.50;;;;;19.92;46.23;101302.72;5035693;28;45336;-50
2022/05/10 05:47:54;;;;;;;;;28.50;24.00;;;;;19.95;46.27;101303.50;5030867;28;52747;-52
2022/05/10 05:50:23;;;;;;;;;26.50;21.00;;;;;19.98;46.13;101304.16;5035551;28;45320;-53
2022/05/10 05:52:49;;;;;;;;;23.25;19.50;;;;;20.00;46.21;101310.25;5029719;28;45212;-51
2022/05/10 05:55:14;;;;;;;;;28.25;21.50;;;;;20.03;46.09;101304.75;5032772;28;45240;-52
2022/05/10 05:57:40;;;;;;;;;25.50;20.00;;;;;20.06;45.72;101303.72;5036730;28;46155;-53
2022/05/10 06:00:08;;;;;;;;;23.00;21.50;;;;;20.09;45.95;101307.06;5038859;28;45331;-52
2022/05/10 06:02:34;;;;;;;;;24.00;20.25;;;;;20.13;45.66;101306.88;5031573;28;45462;-50
2022/05/10 06:04:59;;;;;;;;;22.75;20.00;;;;;20.16;45.69;101307.56;5035493;28;45337;-52
2022/05/10 06:07:24;;;;;;;;;22.50;21.25;;;;;20.19;45.59;101307.38;5027776;28;45889;-51
2022/05/10 06:09:50;;;;;;;;;18.50;15.75;;;;;20.21;45.11;101304.66;5032812;28;65766;-51
2022/05/10 06:12:17;;;;;;;;;16.00;16.00;;;;;20.25;45.21;101304.34;5008769;28;45440;-53
2022/05/10 06:14:43;;;;;;;;;20.75;17.25;;;;;20.29;44.90;101308.56;5035806;28;45466;-52
2022/05/10 06:17:09;;;;;;;;;20.25;17.75;;;;;20.34;44.80;101304.78;5031091;28;72127;-53
2022/05/10 06:19:36;;;;;;;;;22.75;17.25;;;;;20.39;44.79;101300.88;5031146;28;45570;-51
2022/05/10 06:22:01;;;;;;;;;16.50;16.50;;;;;20.44;44.80;101305.94;5031722;28;45431;-52
2022/05/10 06:24:27;;;;;;;;;18.75;17.25;;;;;20.48;44.37;101305.66;5033312;28;45499;-51
2022/05/10 06:26:52;;;;;;;;;19.00;16.25;;;;;20.53;44.31;101305.38;5022092;28;45498;-52
2022/05/10 06:29:18;;;;;;;;;18.25;17.00;;;;;20.59;44.42;101304.16;5036766;28;54046;-52
2022/05/10 06:31:43;;;;;;;;;18.25;16.75;;;;;20.64;44.42;101304.78;5030238;28;59090;-50
2022/05/10 06:34:10;;;;;;;;;21.00;18.50;;;;;20.66;44.30;101305.53;5032066;28;45344;-53
2022/05/10 06:36:36;;;;;;;;;18.25;16.75;;;;;20.73;44.01;101298.91;5031535;28;46256;-54
2022/05/10 06:39:01;;;;;;;;;18.00;17.00;;;;;20.81;44.11;101303.78;5031864;28;45211;-50
2022/05/10 06:41:27;;;;;;;;;20.00;18.00;;;;;20.89;44.06;101295.31;5026682;28;45368;-51
2022/05/10 06:43:52;;;;;;;;;27.50;20.75;;;;;20.96;43.80;101292.16;5032427;28;45271;-51
2022/05/10 06:46:20;;;;;;;;;22.25;20.25;;;;;21.02;43.60;101296.28;5036209;28;46309;-51
2022/05/10 06:48:45;;;;;;;;;27.00;20.00;;;;;21.07;43.57;101296.84;5033908;28;46021;-50
2022/05/10 06:51:11;;;;;;;;;16.25;16.25;;;;;21.13;43.44;101295.59;5030535;28;45697;-50
2022/05/10 06:53:37;;;;;;;;;24.75;19.50;;;;;21.19;43.54;101297.88;5036890;28;45588;-52
2022/05/10 06:56:06;;;;;;;;;22.50;17.00;;;;;21.24;43.59;101291.28;5029095;28;45596;-53
2022/05/10 06:58:31;;;;;;;;;19.75;19.50;;;;;21.29;42.97;101293.69;5038577;28;45720;-49
2022/05/10 07:00:57;;;;;;;;;109.50;96.75;;;;;21.32;43.28;101290.81;5033744;28;64434;-50
2022/05/10 07:03:25;;;;;;;;;68.25;49.25;;;;;21.38;42.95;101295.75;5037154;28;45507;-52
2022/05/10 07:05:50;;;;;;;;;21.00;19.00;;;;;21.43;42.93;101292.81;5030560;28;46980;-53
2022/05/10 07:08:16;;;;;;;;;21.25;18.25;;;;;21.48;42.73;101298.72;5025205;28;45459;-53
2022/05/10 07:10:41;;;;;;;;;19.25;18.00;;;;;21.54;42.98;101287.66;5031163;28;48145;-50
2022/05/10 07:13:07;;;;;;;;;17.50;17.25;;;;;21.59;42.84;101284.72;5030790;28;45455;-53
2022/05/10 07:15:32;;;;;;;;;16.75;13.25;;;;;21.60;42.74;101289.06;5030837;28;46084;-53
2022/05/10 07:17:58;;;;;;;;;22.50;16.25;;;;;21.63;42.49;101288.03;5026495;28;45522;-53
2022/05/10 07:20:23;;;;;;;;;18.00;16.00;;;;;21.67;42.55;101286.88;5038510;28;49829;-52
2022/05/10 07:22:48;;;;;;;;;19.75;15.00;;;;;21.68;42.28;101281.44;5028731;28;65114;-51
2022/05/10 07:25:16;;;;;;;;;20.50;18.00;;;;;21.73;42.49;101273.16;5036890;28;46182;-53
2022/05/10 07:27:41;;;;;;;;;20.25;18.50;;;;;21.76;42.17;101281.81;5032493;28;45778;-52
2022/05/10 07:30:08;;;;;;;;;19.75;18.00;;;;;21.80;42.08;101280.66;5038904;28;45230;-51
2022/05/10 07:32:33;;;;;;;;;19.00;16.75;;;;;21.86;42.27;101281.19;5033154;28;45446;-50
2022/05/10 07:35:02;;;;;;;;;16.50;15.50;;;;;21.89;42.08;101276.53;5038352;28;69556;-53
2022/05/10 07:37:27;;;;;;;;;18.75;14.00;;;;;21.95;41.83;101276.09;5035780;28;45298;-50
2022/05/10 07:39:53;;;;;;;;;21.75;18.25;;;;;22.03;42.16;101288.06;5042172;28;45399;-52
2022/05/10 07:42:18;;;;;;;;;17.00;16.00;;;;;22.10;41.89;101286.72;5034890;28;62115;-53
2022/05/10 07:44:43;;;;;;;;;20.25;16.75;;;;;22.14;41.59;101277.56;5041875;28;47047;-53
2022/05/10 07:47:09;;;;;;;;;15.00;14.00;;;;;22.18;41.84;101277.22;5035278;28;45470;-53
2022/05/10 07:49:34;;;;;;;;;18.25;16.25;;;;;22.19;41.91;101273.63;5041011;28;61464;-53
2022/05/10 07:52:00;;;;;;;;;17.75;15.25;;;;;22.23;41.42;101281.41;5039095;28;45301;-53
2022/05/10 07:54:28;;;;;;;;;17.00;16.25;;;;;22.26;41.09;101276.72;5034253;28;46430;-50
2022/05/10 07:56:53;;;;;;;;;20.00;19.00;;;;;22.30;41.06;101277.41;5039587;28;45174;-50
2022/05/10 07:59:18;;;;;;;;;19.75;16.75;;;;;22.40;41.30;101275.84;5033788;28;62442;-53
2022/05/10 08:01:44;;;;;;;;;15.25;14.25;;;;;22.51;41.63;101275.94;5037301;28;45385;-53
2022/05/10 08:04:09;;;;;;;;;17.50;17.50;;;;;22.64;41.36;101269.75;5040056;28;46013;-53
2022/05/10 08:06:35;;;;;;;;;17.00;14.50;;;;;22.78;41.07;101272.31;5038370;28;45360;-51
2022/05/10 08:09:00;;;;;;;;;16.00;13.50;;;;;22.88;40.49;101277.88;5035864;28;61684;-53
2022/05/10 08:11:26;;;;;;;;;24.50;22.25;;;;;22.97;40.51;101279.88;5038138;28;66538;-52
2022/05/10 08:13:51;;;;;;;;;36.75;31.00;;;;;23.07;40.73;101289.00;5036603;28;69250;-53
2022/05/10 08:16:17;;;;;;;;;15.50;15.00;;;;;23.15;39.96;101284.91;5039215;28;51073;-50
2022/05/10 08:18:45;;;;;;;;;18.25;15.25;;;;;23.21;40.54;101281.78;5038459;28;45350;-50
2022/05/10 08:21:10;;;;;;;;;21.00;17.00;;;;;23.26;40.09;101287.66;5039742;28;45542;-52
2022/05/10 08:23:37;;;;;;;;;21.75;18.25;;;;;23.31;40.24;101286.34;5029760;28;45433;-53
2022/05/10 08:26:03;;;;;;;;;16.50;13.50;;;;;23.41;40.08;101289.22;5025044;28;45250;-53
2022/05/10 08:28:29;;;;;;;;;18.75;16.25;;;;;23.48;39.44;101289.66;5021734;28;45286;-53
2022/05/10 08:30:55;;;;;;;;;20.50;15.50;;;;;23.52;39.27;101284.94;5021499;28;45427;-53
2022/05/10 08:33:25;;;;;;;;;18.25;13.25;;;;;23.53;39.62;101283.94;5021540;28;45435;-52
2022/05/10 08:35:51;;;;;;;;;20.25;13.75;;;;;23.58;39.72;101289.81;5034537;28;45253;-51
2022/05/10 08:38:16;;;;;;;;;39.25;19.50;;;;;23.66;39.86;101287.44;5021764;28;45189;-53
2022/05/10 08:40:47;;;;;;;;;20.75;14.25;;;;;23.73;38.87;101286.03;5021501;28;45274;-52
2022/05/10 08:43:20;;;;;;;;;14.50;13.00;;;;;23.83;38.86;101284.41;5020131;28;46215;-50
2022/05/10 08:45:45;;;;;;;;;29.25;18.50;;;;;23.91;39.01;101274.97;5027987;28;45387;-54
2022/05/10 08:48:11;;;;;;;;;21.00;14.75;;;;;23.99;38.77;101276.09;5040095;28;45347;-52
2022/05/10 08:50:37;;;;;;;;;14.00;13.00;;;;;24.11;38.36;101281.47;5041207;28;45412;-52
2022/05/10 08:53:02;;;;;;;;;13.25;13.25;;;;;24.19;38.55;101273.75;5027045;28;45880;-52
2022/05/10 08:55:30;;;;;;;;;19.00;16.50;;;;;24.23;38.81;101268.03;5021395;28;45401;-53
2022/05/10 08:58:01;;;;;;;;;14.50;13.75;;;;;24.29;38.56;101271.19;5020095;28;45203;-53
2022/05/10 09:00:43;;;;;;;;;14.00;12.50;;;;;24.38;38.48;101270.50;5021397;28;45500;-53
2022/05/10 09:03:38;;;;;;;;;17.50;17.25;;;;;24.49;37.93;101273.22;5019591;28;46223;-53
2022/05/10 09:06:16;;;;;;;;;14.25;14.25;;;;;24.61;38.05;101269.59;5019984;28;45677;-53
2022/05/10 09:08:46;;;;;;;;;18.25;16.50;;;;;24.74;37.79;101272.16;5020300;28;45416;-54
2022/05/10 09:11:13;;;;;;;;;15.50;13.50;;;;;24.91;37.00;101264.63;5019840;28;45403;-53
2022/05/10 09:13:38;;;;;;;;;22.50;20.75;;;;;25.10;36.79;101269.38;5021078;28;45243;-52
2022/05/10 09:16:06;;;;;;;;;15.00;12.50;;;;;25.34;36.03;101262.06;5021031;28;45233;-53
2022/05/10 09:18:31;;;;;;;;;22.00;18.00;;;;;25.70;36.13;101265.38;5020936;28;45276;-53
2022/05/10 09:21:04;;;;;;;;;16.00;14.00;;;;;26.11;35.39;101261.09;5033184;28;45285;-50
2022/05/10 09:23:58;;;;;;;;;18.00;13.25;;;;;26.46;34.79;101267.13;5019503;28;45508;-51
2022/05/10 09:26:24;;;;;;;;;13.25;12.00;;;;;26.67;34.12;101256.41;5026566;28;45680;-51
2022/05/10 09:29:05;;;;;;;;;16.00;13.50;;;;;26.83;34.00;101255.91;5020977;28;45306;-53
2022/05/10 09:37:15;;;;;;;;;53.25;30.75;;;;;27.09;33.89;101248.22;5019688;28;45296;-51
2022/05/10 09:39:47;;;;;;;;;32.25;19.00;;;;;27.27;32.94;101249.31;5020938;28;45374;-50
2022/05/10 09:42:28;;;;;;;;;15.50;14.75;;;;;27.56;33.41;101253.03;5003337;28;45303;-49
2022/05/10 09:44:58;;;;;;;;;18.00;14.25;;;;;27.91;33.22;101246.28;5020442;28;46223;-52
2022/05/10 09:47:24;;;;;;;;;16.25;14.50;;;;;28.32;32.89;101242.41;5020037;28;45163;-52
2022/05/10 09:49:49;;;;;;;;;16.25;12.25;;;;;28.78;32.34;101248.81;5028490;28;66417;-52
2022/05/10 09:52:19;;;;;;;;;15.75;11.50;;;;;29.43;31.41;101247.06;5018748;28;49579;-52
2022/05/10 09:54:45;;;;;;;;;12.50;10.50;;;;;30.19;30.00;101240.34;5020026;28;45254;-51
2022/05/10 09:57:24;;;;;;;;;16.75;11.25;;;;;30.77;28.04;101238.88;5018183;28;69060;-51
2022/05/10 09:59:49;;;;;;;;;12.75;9.75;;;;;31.39;29.34;101238.59;5019159;28;45552;-52
2022/05/10 10:02:35;;;;;;;;;11.75;10.25;;;;;32.29;26.84;101245.97;5002580;28;45301;-52
2022/05/10 10:05:21;;;;;;;;;13.00;11.50;;;;;33.61;25.79;101236.28;5029548;28;45376;-52
2022/05/10 10:07:51;;;;;;;;;14.00;12.50;;;;;35.09;24.73;101234.78;5040110;28;45490;-52
2022/05/10 10:10:20;;;;;;;;;10.25;8.25;;;;;36.46;24.36;101243.84;5040310;28;45162;-53
2022/05/10 10:12:46;;;;;;;;;9.00;8.75;;;;;37.03;22.55;101222.78;5038549;28;45386;-52
2022/05/10 10:15:37;;;;;;;;;10.50;9.25;;;;;37.22;22.44;101229.34;5038905;28;46164;-52
2022/05/10 10:18:06;;;;;;;;;18.75;10.75;;;;;37.10;22.41;101225.50;5038637;28;45272;-51
2022/05/10 10:20:38;;;;;;;;;9.75;9.75;;;;;37.15;22.76;101223.84;5043545;28;45471;-53
2022/05/10 10:23:09;;;;;;;;;9.25;9.00;;;;;37.78;21.99;101234.50;5020087;28;45496;-52
2022/05/10 10:25:37;;;;;;;;;11.75;9.00;;;;;39.02;19.92;101229.25;5021321;28;46362;-52
2022/05/10 10:28:11;;;;;;;;;22.50;20.00;;;;;40.10;20.54;101224.69;5019931;28;45733;-49
2022/05/10 10:30:40;;;;;;;;;11.25;11.25;;;;;40.99;19.06;101227.94;5036932;28;45233;-53
2022/05/10 10:33:22;;;;;;;;;8.00;8.00;;;;;41.65;17.84;101229.91;5030472;28;45488;-49
2022/05/10 10:35:52;;;;;;;;;12.00;10.00;;;;;42.47;17.24;101229.97;5018252;28;46414;-52
2022/05/10 10:38:23;;;;;;;;;12.00;8.75;;;;;43.03;17.63;101233.09;5024485;28;45332;-51
2022/05/10 10:40:59;;;;;;;;;9.50;9.50;;;;;43.62;16.75;101231.94;5005579;28;45458;-52
2022/05/10 10:43:49;;;;;;;;;8.75;7.25;;;;;43.99;16.31;101221.22;5033245;28;45317;-50
2022/05/10 10:46:24;;;;;;;;;13.25;10.75;;;;;44.10;16.43;101226.91;5039252;28;46265;-52
2022/05/10 10:49:00;;;;;;;;;11.00;9.75;;;;;44.28;16.29;101226.63;5033765;28;45748;-52
2022/05/10 10:51:31;;;;;;;;;8.75;8.75;;;;;44.51;15.86;101228.28;5023089;28;45282;-52
2022/05/10 10:53:58;;;;;;;;;9.75;9.00;;;;;45.11;15.37;101217.44;5018233;28;45437;-50
2022/05/10 10:56:38;;;;;;;;;8.00;8.00;;;;;45.60;14.43;101224.75;5018844;28;45404;-52
2022/05/10 10:59:18;;;;;;;;;13.25;11.25;;;;;45.90;13.09;101217.81;5018086;28;45285;-52
2022/05/10 11:01:47;;;;;;;;;18.00;17.25;;;;;46.02;15.05;101216.53;5019344;28;45325;-53
2022/05/10 11:04:44;;;;;;;;;21.00;18.00;;;;;46.17;14.25;101223.28;5019066;28;45387;-53
2022/05/10 11:07:48;;;;;;;;;9.75;8.00;;;;;46.31;13.68;101210.63;5029077;28;45484;-52
2022/05/10 11:10:50;;;;;;;;;12.25;11.50;;;;;46.57;14.03;101200.50;5039290;28;45241;-50
2022/05/10 11:13:37;;;;;;;;;8.00;8.00;;;;;46.88;11.34;101188.69;5031226;28;45356;-53
2022/05/10 11:16:20;;;;;;;;;8.00;8.00;;;;;46.76;13.10;101191.69;5042559;28;46401;-49
2022/05/10 11:18:45;;;;;;;;;10.75;10.00;;;;;46.81;13.36;101191.69;5040966;28;46055;-50
2022/05/10 11:21:10;;;;;;;;;16.33;12.33;;;;;45.81;13.72;101189.81;5041071;28;46080;-53
2022/05/10 11:23:49;;;;;;;;;9.00;9.00;;;;;44.69;13.45;101185.75;5042539;28;45584;-53
2022/05/10 11:26:45;;;;;;;;;11.75;11.25;;;;;43.68;14.37;101185.97;5036150;28;45557;-50
2022/05/10 11:29:20;;;;;;;;;10.00;9.25;;;;;42.84;14.46;101171.00;5024144;28;45453;-53
2022/05/10 11:32:02;;;;;;;;;12.50;12.00;;;;;41.80;14.86;101172.63;5029558;28;45389;-52
2022/05/10 11:34:55;;;;;;;;;8.00;7.50;;;;;40.23;15.76;101171.63;5041391;28;45261;-52
2022/05/10 11:37:32;;;;;;;;;9.75;6.50;;;;;39.43;15.67;101175.06;5041349;28;45339;-54
2022/05/10 11:40:10;;;;;;;;;8.50;6.25;;;;;38.95;16.16;101178.31;5041104;28;45332;-52